New York Harbor Entrance NM SE of Breezy Point NY (44065)

Conditions for Sunday

Daily
Weekly
Monthly
Marine Data Graph

Current Weather/Wave Observations

Air Temperature: 84° F
Humidity: 81
Wind direction (W Dir): South (185 - 194 Degrees)
Wind Speed (W Spd): 5.8 kts (6.7 mph)
Wind Gust (W Spd): 7.8 kts (8.9 mph)
Atmospheric Pressure (AP): 29.78 in

Updated: 2:40 PM EDT on July 21, 2019

Marine & Boating Location Search

Enter a coastal zip code for marine weather.

General Information

Location: 40.369 North -73.703 West
Buoy Type: 3-meter discus buoy
Buoy Hull: 3D63
Payload: ARES payload
Owned by: NDBC
Windspeed: Measured by obtained from anemometer
Sea Surface: Measured by Intake
Note: Right whales are active off NY from November to April.  Speed restrictions of 10 knots apply to vessels 65 feet or greater within the vicinity of this station between November 1 and April 30.  To learn more about right whales and rules protecting them, go to: http://www.nmfs.noaa.gov/pr/shipstrike

Weather and Wave Data

Time Temp Humidity Wind Dominant Wave Wind Wave Wave Swell Pressure
  Air
(°F)
Water
(°F)
  Dir Speed
(kts)
Speed
(mph)
Period
(sec)
Height
(ft)
Range
(ft)
Period
(sec)
Height
(ft)
Range
(ft)
Period
(sec)
Height
(ft)
Range
(ft)
Atmo.
(in)
Tend.
(in)
20:10 80 77 86 SSW 9.7 11.2 - - - - - - 29.80 -
20:20 80 77 86 SSW 9.7 11.2 - - - - - - 29.80 -
20:30 80 77 86 SSW 9.7 11.2 - - - - - - 29.80 -
20:40 80 77 86 SW 7.8 8.9 - - - - - - 29.81 -
20:50 80 77 85 SW 5.8 6.7 7 2.30 exactly 2.3 4 1.64 0.82 - 2.46 7 1.64 0.82 - 2.46 29.80 -
21:10 80 76 86 SSW 7.8 8.9 - - - - - - 29.81 -
21:20 81 76 82 SW 7.8 8.9 - - - - - - 29.80 -
21:30 81 76 80 SW 7.8 8.9 - - - - - - 29.80 -
21:40 81 76 80 SW 7.8 8.9 - - - - - - 29.80 -
21:50 81 76 80 SW 7.8 8.9 7 2.62 exactly 2.6 3 1.64 0.82 - 2.46 7 1.64 0.82 - 2.46 29.81 -
22:10 81 76 80 SW 7.8 8.9 - - - - - - 29.81 -
22:20 81 76 80 SW 7.8 8.9 - - - - - - 29.80 -
22:30 80 76 84 SW 5.8 6.7 - - - - - - 29.81 -
22:40 80 76 84 SW 5.8 6.7 - - - - - - 29.81 -
22:50 80 76 84 SW 5.8 6.7 6 2.62 exactly 2.6 4 1.64 0.82 - 2.46 6 1.64 0.82 - 2.46 29.81 -
23:10 80 76 84 WSW 5.8 6.7 - - - - - - 29.80 -
23:20 80 76 84 SW 7.8 8.9 - - - - - - 29.80 -
23:30 80 76 84 SW 7.8 8.9 - - - - - - 29.79 -
23:40 80 75 84 SW 7.8 8.9 - - - - - - 29.79 -
00:10 80 75 84 WSW 7.8 8.9 - - - - - - 29.79 -
00:20 80 75 84 SW 7.8 8.9 - - - - - - 29.79 -
00:30 80 75 83 SW 9.7 11.2 - - - - - - 29.79 -
00:40 80 75 84 WSW 9.7 11.2 - - - - - - 29.79 -
00:50 80 75 84 WSW 9.7 11.2 6 2.30 exactly 2.3 4 1.64 0.82 - 2.46 6 1.64 0.82 - 2.46 29.79 -
01:00 80 75 84 SW 9.7 11.2 - - - - - - 29.79 -0.01
01:10 79 75 87 SW 7.8 8.9 - - - - - - 29.79 -
01:20 79 75 87 SW 7.8 8.9 - - - - - - 29.79 -
01:30 79 75 88 SW 7.8 8.9 - - - - - - 29.79 -
01:40 79 75 88 SW 9.7 11.2 - - - - - - 29.78 -
01:50 80 75 85 SW 9.7 11.2 5 2.30 exactly 2.3 4 1.64 0.82 - 2.46 5 1.64 0.82 - 2.46 29.78 -
02:10 79 75 89 SW 9.7 11.2 - - - - - - 29.78 -
02:20 79 75 89 SW 9.7 11.2 - - - - - - 29.78 -
02:30 79 75 88 SW 7.8 8.9 - - - - - - 29.78 -
02:50 79 75 88 SW 7.8 8.9 6 2.30 exactly 2.3 3 1.64 0.82 - 2.46 6 1.64 0.82 - 2.46 29.78 -
03:10 78 75 92 SW 7.8 8.9 - - - - - - 29.78 -
03:20 79 75 89 WSW 9.7 11.2 - - - - - - 29.77 -
03:30 79 75 89 WSW 9.7 11.2 - - - - - - 29.78 -
03:40 79 75 88 West 9.7 11.2 - - - - - - 29.78 -
03:50 79 75 88 West 9.7 11.2 5 2.30 exactly 2.3 4 1.64 0.82 - 2.46 5 1.64 0.82 - 2.46 29.78 -
04:10 79 75 87 West 7.8 8.9 - - - - - - 29.78 -
04:20 79 75 87 WSW 7.8 8.9 - - - - - - 29.77 -
04:30 78 74 91 WSW 7.8 8.9 - - - - - - 29.78 -
04:50 78 74 90 SW 5.8 6.7 6 2.30 exactly 2.3 4 1.64 0.82 - 2.46 6 1.64 0.82 - 2.46 29.77 -
05:10 78 74 93 SW 5.8 6.7 - - - - - - 29.78 -
05:30 78 74 93 SW 7.8 8.9 - - - - - - 29.77 -
05:50 79 74 88 SW 7.8 8.9 7 2.30 exactly 2.3 4 1.64 0.82 - 2.46 7 1.64 0.82 - 2.46 29.78 -
06:20 79 74 89 SW 7.8 8.9 - - - - - - 29.77 -
06:30 79 74 89 SW 7.8 8.9 - - - - - - 29.78 -
07:20 79 75 89 WSW 9.7 11.2 - - - - - - 29.80 -
07:30 79 75 89 West 9.7 11.2 - - - - - - 29.81 -
07:50 79 75 89 West 11.7 13.4 6 2.30 exactly 2.3 5 1.64 0.82 - 2.46 6 1.64 0.82 - 2.46 29.82 -
09:00 80 76 83 West 7.8 8.9 - - - - - - 29.83 +0.05
09:10 80 76 84 West 7.8 8.9 - - - - - - 29.82 -
09:20 80 76 84 West 7.8 8.9 - - - - - - 29.82 -
09:30 80 76 84 West 5.8 6.7 - - - - - - 29.82 -
09:40 80 76 85 West 5.8 6.7 - - - - - - 29.81 -
09:50 80 76 85 WSW 5.8 6.7 5 2.30 exactly 2.3 4 1.64 0.82 - 2.46 5 1.64 0.82 - 2.46 29.81 -
10:00 80 76 85 WSW 5.8 6.7 - - - - - - 29.81 +0.02
10:10 80 76 86 WSW 5.8 6.7 - - - - - - 29.81 -
10:20 80 76 86 SW 5.8 6.7 - - - - - - 29.81 -
10:40 82 76 78 WSW 5.8 6.7 - - - - - - 29.81 -
10:50 82 76 79 WSW 3.9 4.5 5 2.30 exactly 2.3 4 1.64 0.82 - 2.46 5 1.64 0.82 - 2.46 29.81 -
11:20 82 77 77 WNW 7.8 8.9 - - - - - - 29.81 -
11:30 82 76 78 WNW 7.8 8.9 - - - - - - 29.81 -
11:40 82 76 78 West 5.8 6.7 - - - - - - 29.81 -
11:50 82 76 79 West 5.8 6.7 6 1.97 exactly 2.0 4 1.64 0.82 - 2.46 6 1.64 0.82 - 2.46 29.81 -
12:00 82
-
79 West 7.8 8.9 - - - - - - 29.81 -0.02
12:10 82 76 78 West 7.8 8.9 - - - - - - 29.81 -
12:30 83 77 75 West 7.8 8.9 - - - - - - 29.80 -
12:50 83 77 77 WSW 5.8 6.7 6 1.97 exactly 2.0 3 1.64 0.82 - 2.46 6 1.64 0.82 - 2.46 29.80 -
13:00 82 77 81 WSW 3.9 4.5 - - - - - - 29.79 -0.01
13:10 83 76 77 WSW 3.9 4.5 - - - - - - 29.79 -
13:20 84 76 74 WSW 3.9 4.5 - - - - - - 29.79 -
13:30 83 76 79 WSW 3.9 4.5 - - - - - - 29.79 -
13:40 84 76 76 SW 5.8 6.7 - - - - - - 29.79 -
13:50 84 75 79 SSW 5.8 6.7 6 1.97 exactly 2.0 3 1.64 0.82 - 2.46 6 1.64 0.82 - 2.46 29.79 -
14:00 84 75 79 South 5.8 6.7 - - - - - - 29.78 -0.03
14:10 85 76 77 South 5.8 6.7 - - - - - - 29.78 -
14:40 84 75 81 South 5.8 6.7 - - - - - - 29.78 -

Detailed Wave Spectra

Time Water Depth Wave Height Spectral Peak Period Average Wave Period Sampling Interval Wave Record
20:00 82 ft 2.43 ft 8.3 sec 3.9 sec 0.6 sec 2400 sec
21:00 82 ft 2.43 ft 6.7 sec 4.3 sec 0.6 sec 2400 sec
22:00 82 ft 2.46 ft 6.7 sec 4.4 sec 0.6 sec 2400 sec
23:00 82 ft 2.49 ft 5.9 sec 4.7 sec 0.6 sec 2400 sec
00:00 82 ft 2.30 ft 9.1 sec 4.7 sec 0.6 sec 2400 sec
02:00 82 ft 2.43 ft 4.5 sec 4.9 sec 0.6 sec 2400 sec
03:00 82 ft 2.30 ft 6.3 sec 4.8 sec 0.6 sec 2400 sec
04:00 82 ft 2.30 ft 5.3 sec 4.9 sec 0.6 sec 2400 sec
05:00 82 ft 2.17 ft 5.9 sec 4.7 sec 0.6 sec 2400 sec
07:00 82 ft 2.20 ft 6.7 sec 4.7 sec 0.6 sec 2400 sec
08:00 82 ft 2.20 ft 5.9 sec 4.5 sec 0.6 sec 2400 sec
11:00 82 ft 2.33 ft 5.3 sec 4.5 sec 0.6 sec 2400 sec